Time;durP1;ratioP1;P1;durP2;ratioP2;P2;SDS_P1;SDS_P2;PMS_P1;PMS_P2;Temp;Humidity;BMP_temperature;BMP_pressure;BME280_temperature;BME280_humidity;BME280_pressure;Samples;Min_cycle;Max_cycle;Signal;HPM_P1;HPM_P2
2021/04/10 00:00:49;;;;;;;19.73;12.38;;;7.20;99.90;;;;;;5090865;28;20067;-47
2021/04/10 00:03:14;;;;;;;16.08;11.50;;;7.20;99.90;;;;;;5090442;28;20036;-49
2021/04/10 00:05:40;;;;;;;16.13;11.55;;;7.20;99.90;;;;;;5090433;28;20043;-46
2021/04/10 00:08:06;;;;;;;17.38;12.00;;;7.20;99.90;;;;;;5088951;28;20103;-47
2021/04/10 00:10:32;;;;;;;20.63;12.82;;;7.20;99.90;;;;;;5082014;28;20099;-47
2021/04/10 00:12:59;;;;;;;21.48;13.10;;;7.20;99.90;;;;;;5090368;28;20016;-48
2021/04/10 00:15:27;;;;;;;18.20;11.40;;;7.30;99.90;;;;;;5072530;28;20024;-49
2021/04/10 00:17:53;;;;;;;18.30;12.40;;;7.30;99.90;;;;;;5089741;28;20205;-46
2021/04/10 00:20:20;;;;;;;20.35;12.68;;;7.30;99.90;;;;;;5090071;28;20519;-48
2021/04/10 00:22:46;;;;;;;17.48;12.27;;;7.30;99.90;;;;;;5090301;28;20114;-48
2021/04/10 00:25:13;;;;;;;21.08;13.05;;;7.30;99.90;;;;;;5090256;28;20099;-48
2021/04/10 00:27:40;;;;;;;19.02;12.82;;;7.30;99.90;;;;;;5089425;28;20028;-47
2021/04/10 00:30:08;;;;;;;19.77;13.25;;;7.30;99.90;;;;;;5071920;28;20032;-48
2021/04/10 00:32:34;;;;;;;21.45;13.75;;;7.20;99.90;;;;;;5089967;28;20063;-47
2021/04/10 00:35:00;;;;;;;18.30;12.90;;;7.20;99.90;;;;;;5090388;28;20048;-47
2021/04/10 00:37:26;;;;;;;20.73;13.20;;;7.20;99.90;;;;;;5089582;28;20069;-47
2021/04/10 00:39:52;;;;;;;23.00;13.48;;;7.20;99.90;;;;;;5089726;28;20036;-46
2021/04/10 00:42:18;;;;;;;23.45;14.02;;;7.20;99.90;;;;;;5071683;28;20043;-49
2021/04/10 00:44:43;;;;;;;20.33;13.80;;;7.20;99.90;;;;;;5089899;28;20063;-47
2021/04/10 00:47:09;;;;;;;22.52;13.88;;;7.20;99.90;;;;;;5089762;28;20074;-46
2021/04/10 00:49:34;;;;;;;23.08;14.80;;;7.30;99.90;;;;;;5089008;28;20050;-47
2021/04/10 00:52:01;;;;;;;17.23;12.07;;;7.20;99.90;;;;;;5089417;28;20524;-47
2021/04/10 00:54:27;;;;;;;23.45;14.23;;;7.20;99.90;;;;;;5090025;28;20030;-46
2021/04/10 00:56:52;;;;;;;22.92;14.55;;;7.20;99.90;;;;;;5089694;28;20028;-47
2021/04/10 00:59:18;;;;;;;21.17;14.02;;;7.20;99.90;;;;;;5089526;28;20037;-51
2021/04/10 01:01:44;;;;;;;20.13;13.68;;;7.20;99.90;;;;;;5089735;28;20024;-45
2021/04/10 01:04:09;;;;;;;21.30;15.38;;;7.20;99.90;;;;;;5089450;28;20024;-46
2021/04/10 01:06:36;;;;;;;22.85;14.95;;;7.20;99.90;;;;;;5089235;28;20024;-47
2021/04/10 01:09:02;;;;;;;23.23;13.60;;;7.20;99.90;;;;;;5070804;28;20035;-48
2021/04/10 01:11:58;;;;;;;24.95;14.48;;;7.20;99.90;;;;;;5089287;28;20032;-47
2021/04/10 01:14:32;;;;;;;28.63;16.00;;;7.20;99.90;;;;;;5089475;28;20016;-46
2021/04/10 01:17:08;;;;;;;25.23;14.93;;;7.20;99.90;;;;;;5089409;28;20083;-48
2021/04/10 01:19:45;;;;;;;17.73;13.25;;;7.20;99.90;;;;;;5088753;28;20032;-46
2021/04/10 01:22:30;;;;;;;23.90;15.25;;;7.20;99.90;;;;;;5088958;28;20055;-52
2021/04/10 01:25:05;;;;;;;25.85;15.65;;;7.10;99.90;;;;;;5089334;28;20028;-47
2021/04/10 01:27:38;;;;;;;22.15;15.32;;;7.00;99.90;;;;;;5088591;28;20114;-47
2021/04/10 01:30:09;;;;;;;25.08;14.63;;;7.00;99.90;;;;;;5088966;28;20562;-46
2021/04/10 01:32:50;;;;;;;23.55;14.73;;;7.10;99.90;;;;;;5088923;28;20040;-47
2021/04/10 01:35:18;;;;;;;20.95;14.43;;;7.10;99.90;;;;;;5088888;28;20020;-48
2021/04/10 01:38:08;;;;;;;22.42;14.57;;;7.00;99.90;;;;;;5087978;28;20473;-46
2021/04/10 01:40:35;;;;;;;25.58;16.50;;;7.00;99.90;;;;;;5080609;28;20477;-47
2021/04/10 01:43:02;;;;;;;26.00;15.30;;;7.10;99.90;;;;;;5070528;28;20390;-48
2021/04/10 01:45:29;;;;;;;22.42;14.43;;;7.00;99.90;;;;;;5088973;28;20101;-47
2021/04/10 01:48:08;;;;;;;20.55;14.10;;;7.10;99.90;;;;;;5088041;28;20051;-47
2021/04/10 01:50:36;;;;;;;20.95;14.25;;;7.00;99.90;;;;;;5088691;28;20085;-48
2021/04/10 01:53:02;;;;;;;23.40;14.55;;;7.10;99.90;;;;;;5088842;28;20073;-46
2021/04/10 01:55:28;;;;;;;22.15;14.98;;;7.10;99.90;;;;;;5088804;28;20287;-47
2021/04/10 01:57:54;;;;;;;22.88;14.30;;;7.10;99.90;;;;;;5088063;28;20028;-48
2021/04/10 02:00:22;;;;;;;22.08;14.73;;;7.10;99.90;;;;;;5070421;28;20050;-45
2021/04/10 02:02:48;;;;;;;20.10;12.65;;;7.10;99.90;;;;;;5088876;28;20032;-46
2021/04/10 02:05:16;;;;;;;28.90;15.00;;;7.00;99.90;;;;;;5088535;28;20504;-47
2021/04/10 02:07:47;;;;;;;21.48;14.18;;;7.00;99.90;;;;;;5087710;28;20031;-49
2021/04/10 02:10:16;;;;;;;22.75;14.95;;;7.00;99.90;;;;;;5088843;28;20035;-46
2021/04/10 02:12:43;;;;;;;21.70;13.60;;;7.00;99.90;;;;;;5088566;28;20032;-47
2021/04/10 02:15:11;;;;;;;30.60;16.45;;;7.00;99.90;;;;;;5088600;28;20028;-48
2021/04/10 02:17:37;;;;;;;24.35;15.70;;;7.10;99.90;;;;;;5087984;28;20016;-46
2021/04/10 02:20:07;;;;;;;24.95;16.08;;;7.00;99.90;;;;;;5088657;28;20024;-47
2021/04/10 02:22:33;;;;;;;26.27;15.60;;;7.00;99.90;;;;;;5088176;28;20150;-46
2021/04/10 02:24:59;;;;;;;24.92;16.38;;;7.00;99.90;;;;;;5088390;28;20538;-48
2021/04/10 02:27:25;;;;;;;24.55;16.25;;;7.00;99.90;;;;;;5088151;28;20103;-48
2021/04/10 02:29:50;;;;;;;26.63;16.25;;;6.90;99.90;;;;;;5087949;28;20035;-47
2021/04/10 02:32:38;;;;;;;25.10;16.88;;;7.00;99.90;;;;;;5092095;28;20473;-48
2021/04/10 02:35:10;;;;;;;28.05;17.23;;;7.00;99.90;;;;;;5092184;28;20050;-48
2021/04/10 02:37:36;;;;;;;25.08;16.42;;;6.90;99.90;;;;;;5091357;28;20056;-46
2021/04/10 02:40:07;;;;;;;27.05;16.33;;;6.90;99.90;;;;;;5092408;28;20028;-49
2021/04/10 02:42:37;;;;;;;24.70;15.18;;;6.90;99.90;;;;;;5092351;28;20024;-47
2021/04/10 02:45:04;;;;;;;27.33;16.17;;;6.90;99.90;;;;;;5091866;28;20061;-46
2021/04/10 02:47:32;;;;;;;28.45;17.83;;;6.90;99.90;;;;;;5072811;28;20295;-46
2021/04/10 02:50:04;;;;;;;27.02;16.98;;;6.90;99.90;;;;;;5092017;28;20051;-47
2021/04/10 02:52:42;;;;;;;28.98;17.52;;;6.90;99.90;;;;;;5091892;28;20066;-47
2021/04/10 02:55:10;;;;;;;28.52;17.23;;;6.90;99.90;;;;;;5091824;28;20370;-49
2021/04/10 02:57:37;;;;;;;25.70;16.52;;;6.90;99.90;;;;;;5072884;28;20428;-46
2021/04/10 03:00:06;;;;;;;26.88;16.40;;;6.90;99.90;;;;;;5092012;28;20417;-47
2021/04/10 03:02:34;;;;;;;27.90;16.08;;;6.90;99.90;;;;;;5073579;28;20028;-45
2021/04/10 03:05:00;;;;;;;26.27;16.23;;;6.80;99.90;;;;;;5091445;28;20324;-47
2021/04/10 03:07:26;;;;;;;24.70;17.27;;;6.80;99.90;;;;;;5090649;28;20036;-47
2021/04/10 03:09:53;;;;;;;30.73;18.40;;;6.80;99.90;;;;;;5072414;28;20561;-47
2021/04/10 03:12:20;;;;;;;24.90;16.67;;;6.80;99.90;;;;;;5090911;28;20028;-46
2021/04/10 03:14:47;;;;;;;27.08;17.40;;;6.70;99.90;;;;;;5090808;28;20118;-48
2021/04/10 03:17:16;;;;;;;28.35;17.98;;;6.70;99.90;;;;;;5090747;28;20466;-45
2021/04/10 03:19:43;;;;;;;29.02;18.30;;;6.70;99.90;;;;;;5090792;28;20362;-45
2021/04/10 03:22:10;;;;;;;26.83;16.27;;;6.60;99.90;;;;;;5090836;28;20024;-45
2021/04/10 03:24:35;;;;;;;26.38;17.90;;;6.60;99.90;;;;;;5090943;28;20035;-45
2021/04/10 03:27:01;;;;;;;25.27;16.35;;;6.60;99.90;;;;;;5072281;28;20020;-45
2021/04/10 03:29:27;;;;;;;30.10;16.13;;;6.60;99.90;;;;;;5089448;28;20055;-45
2021/04/10 03:31:54;;;;;;;27.70;16.42;;;6.60;99.90;;;;;;5090259;28;20012;-46
2021/04/10 03:34:20;;;;;;;27.33;16.00;;;6.50;99.90;;;;;;5071717;28;20016;-45
2021/04/10 03:36:46;;;;;;;27.90;17.23;;;6.60;99.90;;;;;;5072250;28;20116;-46
2021/04/10 03:39:11;;;;;;;30.42;18.08;;;6.60;99.90;;;;;;5089688;28;20561;-47
2021/04/10 03:41:37;;;;;;;34.72;19.60;;;6.60;99.90;;;;;;5071667;28;20031;-47
2021/04/10 03:44:03;;;;;;;26.65;16.70;;;6.50;99.90;;;;;;5089252;28;20063;-47
2021/04/10 03:46:28;;;;;;;31.63;16.63;;;6.60;99.90;;;;;;5090353;28;20538;-47
2021/04/10 03:48:54;;;;;;;26.65;17.20;;;6.60;99.90;;;;;;5089286;28;20042;-47
2021/04/10 03:51:19;;;;;;;27.10;17.13;;;6.60;99.90;;;;;;5089711;28;20488;-47
2021/04/10 03:53:45;;;;;;;25.58;16.38;;;6.60;99.90;;;;;;5090210;28;20072;-48
2021/04/10 03:56:10;;;;;;;31.50;17.88;;;6.50;99.90;;;;;;5090699;28;20492;-46
2021/04/10 03:58:36;;;;;;;29.25;17.92;;;6.50;99.90;;;;;;5090051;28;20393;-47
2021/04/10 04:01:02;;;;;;;30.50;17.23;;;6.50;99.90;;;;;;5090701;28;20138;-46
2021/04/10 04:03:27;;;;;;;28.50;16.35;;;6.50;99.90;;;;;;5090560;28;20044;-47
2021/04/10 04:05:53;;;;;;;27.35;16.95;;;6.40;99.90;;;;;;5090498;28;20412;-47
2021/04/10 04:08:18;;;;;;;28.73;16.85;;;6.40;99.90;;;;;;5090061;28;20401;-46
2021/04/10 04:10:43;;;;;;;28.88;17.45;;;6.40;99.90;;;;;;5090691;28;20020;-46
2021/04/10 04:13:09;;;;;;;34.97;19.48;;;6.40;99.90;;;;;;5072426;28;20350;-47
2021/04/10 04:15:34;;;;;;;32.63;17.15;;;6.40;99.90;;;;;;5090544;28;20077;-46
2021/04/10 04:18:00;;;;;;;31.17;17.25;;;6.30;99.90;;;;;;5089631;28;20262;-49
2021/04/10 04:20:25;;;;;;;29.67;16.60;;;6.20;99.90;;;;;;5090347;28;20036;-48
2021/04/10 04:22:52;;;;;;;32.33;16.92;;;6.20;99.90;;;;;;5090206;28;20028;-48
2021/04/10 04:25:17;;;;;;;32.58;17.27;;;6.20;99.90;;;;;;5090322;28;20027;-46
2021/04/10 04:27:43;;;;;;;29.42;16.90;;;6.10;99.90;;;;;;5089529;28;20024;-46
2021/04/10 04:30:10;;;;;;;26.77;15.95;;;6.10;99.90;;;;;;5071746;28;20020;-48
2021/04/10 04:32:36;;;;;;;31.00;16.23;;;6.10;99.90;;;;;;5089938;28;20032;-48
2021/04/10 04:35:02;;;;;;;29.67;16.27;;;6.10;99.90;;;;;;5090301;28;20035;-47
2021/04/10 04:37:28;;;;;;;30.40;15.90;;;6.10;99.90;;;;;;5071378;28;20034;-47
2021/04/10 04:39:53;;;;;;;31.75;15.52;;;6.10;99.90;;;;;;5090437;28;20028;-47
2021/04/10 04:42:19;;;;;;;28.85;16.20;;;6.00;99.90;;;;;;5090357;28;20035;-46
2021/04/10 04:44:45;;;;;;;31.92;17.30;;;6.00;99.90;;;;;;5089538;28;20028;-46
2021/04/10 04:47:10;;;;;;;29.75;16.55;;;6.10;99.90;;;;;;5089117;28;20053;-48
2021/04/10 04:49:36;;;;;;;27.52;15.68;;;6.00;99.90;;;;;;5088426;28;20096;-47
2021/04/10 04:52:02;;;;;;;29.42;16.80;;;6.10;99.90;;;;;;5087508;28;20517;-47
2021/04/10 04:54:28;;;;;;;31.45;16.80;;;6.10;99.90;;;;;;5090280;28;20047;-48
2021/04/10 04:56:54;;;;;;;39.45;16.83;;;6.10;99.90;;;;;;5088994;28;20024;-45
2021/04/10 04:59:20;;;;;;;30.13;15.75;;;6.10;99.90;;;;;;5085509;28;20381;-47
2021/04/10 05:01:45;;;;;;;32.10;15.45;;;6.10;99.90;;;;;;5088656;28;20016;-45
2021/04/10 05:04:11;;;;;;;26.80;14.75;;;6.10;99.90;;;;;;5089056;28;20095;-46
2021/04/10 05:06:38;;;;;;;24.83;13.93;;;6.10;99.90;;;;;;5088719;28;20032;-49
2021/04/10 05:09:03;;;;;;;34.63;16.48;;;6.10;99.90;;;;;;5088669;28;20032;-47
2021/04/10 05:11:29;;;;;;;25.92;13.93;;;6.20;99.90;;;;;;5089358;28;20031;-47
2021/04/10 05:13:54;;;;;;;29.98;15.90;;;6.10;99.90;;;;;;5088311;28;20032;-49
2021/04/10 05:16:20;;;;;;;25.08;14.57;;;6.10;99.90;;;;;;5090021;28;20448;-49
2021/04/10 05:18:46;;;;;;;24.65;14.75;;;6.10;99.90;;;;;;5088407;28;20540;-51
2021/04/10 05:21:12;;;;;;;29.52;16.10;;;6.20;99.90;;;;;;5088933;28;20056;-46
2021/04/10 05:23:38;;;;;;;28.40;15.15;;;6.10;99.90;;;;;;5087744;28;20047;-49
2021/04/10 05:26:04;;;;;;;28.20;15.35;;;6.20;99.90;;;;;;5092005;28;20024;-47
2021/04/10 05:28:30;;;;;;;19.73;13.07;;;6.20;99.90;;;;;;5083251;28;20028;-49
2021/04/10 05:30:55;;;;;;;29.23;15.57;;;6.20;99.90;;;;;;5091192;28;20020;-49
2021/04/10 05:33:21;;;;;;;23.63;14.63;;;6.20;99.90;;;;;;5088944;28;20039;-48
2021/04/10 05:35:46;;;;;;;27.02;15.73;;;6.10;99.90;;;;;;5069009;28;20073;-49
2021/04/10 05:38:12;;;;;;;31.65;15.73;;;6.20;99.90;;;;;;5093575;28;20501;-46
2021/04/10 05:40:38;;;;;;;26.85;15.20;;;6.20;99.90;;;;;;5096511;28;20028;-46
2021/04/10 05:43:03;;;;;;;29.80;15.35;;;6.20;99.90;;;;;;5090194;28;20025;-47
2021/04/10 05:45:29;;;;;;;22.75;13.73;;;6.20;99.90;;;;;;5083106;28;20516;-47
2021/04/10 05:47:54;;;;;;;24.70;14.70;;;6.20;99.90;;;;;;5086967;28;20032;-46
2021/04/10 05:50:20;;;;;;;23.60;13.43;;;6.20;99.90;;;;;;5070674;28;20032;-47
2021/04/10 05:52:47;;;;;;;28.80;15.88;;;6.20;99.90;;;;;;5077889;28;20103;-47
2021/04/10 05:55:12;;;;;;;26.02;15.05;;;6.20;99.90;;;;;;5085966;28;20027;-47
2021/04/10 05:57:38;;;;;;;29.15;15.40;;;6.30;99.90;;;;;;5087975;28;20020;-50
2021/04/10 06:00:05;;;;;;;28.23;13.30;;;6.30;99.90;;;;;;5081631;28;20020;-47
2021/04/10 06:02:31;;;;;;;28.75;14.43;;;6.30;99.90;;;;;;5081422;28;20035;-46
2021/04/10 06:04:57;;;;;;;27.75;12.85;;;6.40;99.90;;;;;;5082610;28;20038;-46
2021/04/10 06:07:22;;;;;;;20.60;12.98;;;6.40;99.90;;;;;;5083166;28;20028;-48
2021/04/10 06:09:49;;;;;;;27.67;13.93;;;6.30;99.90;;;;;;5084726;28;20703;-50
2021/04/10 06:12:15;;;;;;;28.08;15.73;;;6.40;99.90;;;;;;5088458;28;20028;-51
2021/04/10 06:14:40;;;;;;;27.20;13.90;;;6.30;99.90;;;;;;5070205;28;20020;-49
2021/04/10 06:17:06;;;;;;;28.33;13.45;;;6.30;99.90;;;;;;5088552;28;20027;-49
2021/04/10 06:19:31;;;;;;;21.77;13.30;;;6.30;99.90;;;;;;5085831;28;20422;-46
2021/04/10 06:21:57;;;;;;;25.08;13.30;;;6.30;99.90;;;;;;5082854;28;20028;-46
2021/04/10 06:24:22;;;;;;;24.13;13.52;;;6.30;99.90;;;;;;5082923;28;20401;-47
2021/04/10 06:26:48;;;;;;;22.88;12.55;;;6.30;99.90;;;;;;5084150;28;20024;-48
2021/04/10 06:29:13;;;;;;;24.27;12.38;;;6.30;99.90;;;;;;5083465;28;20032;-47
2021/04/10 06:31:40;;;;;;;23.77;11.95;;;6.30;99.90;;;;;;5088454;28;20036;-47
2021/04/10 06:34:06;;;;;;;24.83;11.85;;;6.30;99.90;;;;;;5088288;28;20486;-48
2021/04/10 06:36:32;;;;;;;21.63;10.55;;;6.20;99.90;;;;;;5086983;28;20051;-47
2021/04/10 06:38:58;;;;;;;21.55;10.63;;;6.30;99.90;;;;;;5083373;28;20028;-47
2021/04/10 06:41:23;;;;;;;25.77;11.90;;;6.30;99.90;;;;;;5082006;28;20029;-46
2021/04/10 06:43:51;;;;;;;23.85;11.00;;;6.30;99.90;;;;;;5068795;28;20386;-46
2021/04/10 06:46:17;;;;;;;20.10;10.32;;;6.20;99.90;;;;;;5082294;28;20107;-46
2021/04/10 06:48:44;;;;;;;18.63;9.32;;;6.20;99.90;;;;;;5079581;28;20111;-46
2021/04/10 06:51:13;;;;;;;21.33;10.23;;;6.30;99.90;;;;;;5085665;28;20063;-47
2021/04/10 06:53:46;;;;;;;21.50;11.27;;;6.40;99.90;;;;;;5083454;28;20020;-47
2021/04/10 06:56:17;;;;;;;17.52;9.23;;;6.30;99.90;;;;;;5082021;28;20040;-47
2021/04/10 06:59:01;;;;;;;17.55;9.93;;;6.30;99.90;;;;;;5087210;28;20031;-48
2021/04/10 07:01:29;;;;;;;19.92;9.43;;;6.30;99.90;;;;;;5088021;28;20024;-47
2021/04/10 07:03:55;;;;;;;25.33;10.75;;;6.30;99.90;;;;;;5088063;28;20031;-47
2021/04/10 07:06:20;;;;;;;19.38;9.13;;;6.30;99.90;;;;;;5080611;28;20102;-46
2021/04/10 07:08:47;;;;;;;22.25;9.30;;;6.30;99.90;;;;;;5087243;28;20067;-46
2021/04/10 07:11:14;;;;;;;17.75;8.88;;;6.40;99.90;;;;;;5088221;28;20416;-48
2021/04/10 07:13:40;;;;;;;19.35;9.18;;;6.40;99.90;;;;;;5087578;28;20028;-47
2021/04/10 07:16:06;;;;;;;21.08;9.07;;;6.40;99.90;;;;;;5083250;28;20103;-49
2021/04/10 07:18:32;;;;;;;18.73;8.23;;;6.40;99.90;;;;;;5088175;28;20119;-48
2021/04/10 07:21:21;;;;;;;22.83;8.65;;;6.40;99.90;;;;;;5086179;28;20032;-47
2021/04/10 07:23:55;;;;;;;18.10;8.35;;;6.40;99.90;;;;;;5088924;28;20012;-47
2021/04/10 07:26:57;;;;;;;18.77;8.32;;;6.40;99.90;;;;;;5091362;28;20169;-48
2021/04/10 07:29:39;;;;;;;17.52;7.32;;;6.40;99.90;;;;;;5090666;28;20074;-46
2021/04/10 07:32:27;;;;;;;22.58;8.38;;;6.40;99.90;;;;;;5073171;28;20555;-49
2021/04/10 07:34:53;;;;;;;18.65;7.68;;;6.40;99.90;;;;;;5091227;28;20028;-47
2021/04/10 07:37:48;;;;;;;17.38;8.43;;;6.50;99.90;;;;;;5090409;28;20107;-46
2021/04/10 07:40:28;;;;;;;25.42;9.60;;;6.50;99.90;;;;;;5090726;28;20034;-46
2021/04/10 07:43:00;;;;;;;27.75;10.35;;;6.50;99.90;;;;;;5088820;28;20032;-47
2021/04/10 07:45:34;;;;;;;23.58;8.95;;;6.60;99.90;;;;;;5090973;28;20032;-48
2021/04/10 07:48:10;;;;;;;22.83;10.32;;;6.50;99.90;;;;;;5090298;28;20035;-48
2021/04/10 07:50:37;;;;;;;21.75;10.15;;;6.60;99.90;;;;;;5090813;28;20047;-50
2021/04/10 07:53:26;;;;;;;22.52;10.15;;;6.70;99.90;;;;;;5090580;28;20111;-48
2021/04/10 07:55:52;;;;;;;25.38;12.23;;;6.60;99.90;;;;;;5074757;28;20559;-47
2021/04/10 07:58:26;;;;;;;29.27;12.13;;;6.70;99.90;;;;;;5088027;28;20028;-49
2021/04/10 08:00:54;;;;;;;31.48;12.35;;;6.60;99.90;;;;;;5085599;28;20031;-47
2021/04/10 08:03:33;;;;;;;25.00;12.20;;;6.60;99.90;;;;;;5090444;28;20046;-47
2021/04/10 08:06:07;;;;;;;24.27;11.88;;;6.60;99.90;;;;;;5072970;28;20028;-48
2021/04/10 08:08:53;;;;;;;25.67;13.30;;;6.60;99.90;;;;;;5084510;28;20111;-49
2021/04/10 08:11:35;;;;;;;30.58;12.55;;;6.60;99.90;;;;;;5084496;28;20142;-47
2021/04/10 08:14:07;;;;;;;24.50;12.05;;;6.60;99.90;;;;;;5086006;28;20021;-49
2021/04/10 08:16:48;;;;;;;29.58;12.43;;;6.60;99.90;;;;;;5083957;28;20024;-48
2021/04/10 08:19:15;;;;;;;33.15;12.70;;;6.60;99.90;;;;;;5081867;28;20039;-51
2021/04/10 08:21:46;;;;;;;21.77;10.55;;;6.60;99.90;;;;;;5082231;28;20051;-47
2021/04/10 08:24:21;;;;;;;21.25;11.57;;;6.60;99.90;;;;;;5082774;28;20026;-47
2021/04/10 08:26:51;;;;;;;24.20;12.15;;;6.60;99.90;;;;;;5087021;28;20020;-46
2021/04/10 08:29:18;;;;;;;21.27;10.60;;;6.60;99.90;;;;;;5088208;28;20202;-47
2021/04/10 08:31:44;;;;;;;25.17;12.07;;;6.70;99.90;;;;;;5085473;28;20153;-47
2021/04/10 08:34:12;;;;;;;29.55;12.00;;;6.70;99.90;;;;;;5088275;28;20533;-47
2021/04/10 08:36:40;;;;;;;21.77;11.73;;;6.80;99.90;;;;;;5083379;28;20493;-47
2021/04/10 08:39:11;;;;;;;21.05;11.18;;;6.80;99.90;;;;;;5082621;28;20031;-47
2021/04/10 08:41:38;;;;;;;;;;;6.90;99.90;;;;;;5082964;28;20034;-49
2021/04/10 08:44:07;;;;;;;23.95;10.60;;;7.00;99.90;;;;;;5087343;28;20026;-48
2021/04/10 08:46:37;;;;;;;21.15;9.65;;;7.00;99.90;;;;;;5083845;28;20028;-48
2021/04/10 08:49:03;;;;;;;23.70;10.35;;;7.00;99.90;;;;;;5082910;28;20028;-48
2021/04/10 08:51:37;;;;;;;23.05;9.77;;;7.00;99.90;;;;;;5085364;28;20020;-47
2021/04/10 08:54:06;;;;;;;22.77;11.23;;;7.00;99.90;;;;;;5086594;28;20440;-47
2021/04/10 08:56:31;;;;;;;25.83;10.45;;;7.10;99.90;;;;;;5086616;28;20024;-48
2021/04/10 08:59:15;;;;;;;20.83;10.23;;;7.20;99.90;;;;;;5086854;28;20040;-48
2021/04/10 09:01:42;;;;;;;23.48;10.13;;;7.30;99.90;;;;;;5083371;28;20101;-49
2021/04/10 09:04:10;;;;;;;22.63;9.48;;;7.30;99.90;;;;;;5063123;28;20036;-50
2021/04/10 09:06:38;;;;;;;21.73;8.48;;;7.20;99.90;;;;;;5082644;28;20513;-49
2021/04/10 09:09:15;;;;;;;24.05;8.60;;;7.30;99.90;;;;;;5064565;28;20028;-48
2021/04/10 09:11:45;;;;;;;15.45;7.05;;;7.20;99.90;;;;;;5067126;28;20108;-50
2021/04/10 09:14:13;;;;;;;16.83;7.50;;;7.20;99.90;;;;;;5072734;28;20119;-48
2021/04/10 09:16:49;;;;;;;14.05;6.32;;;7.30;99.90;;;;;;5067958;28;20778;-48
2021/04/10 09:19:16;;;;;;;13.60;6.28;;;7.40;99.90;;;;;;5086654;28;20455;-47
2021/04/10 09:21:59;;;;;;;13.88;6.18;;;7.50;99.90;;;;;;5087655;28;20115;-48
2021/04/10 09:24:24;;;;;;;14.68;6.03;;;7.50;99.90;;;;;;5085828;28;21843;-49
2021/04/10 09:27:32;;;;;;;16.05;5.65;;;7.50;99.90;;;;;;5087185;28;20066;-47
2021/04/10 09:30:01;;;;;;;24.73;7.30;;;7.50;99.90;;;;;;5058826;28;20036;-48
2021/04/10 09:32:42;;;;;;;17.25;7.13;;;7.50;99.90;;;;;;5085991;28;20024;-50
2021/04/10 09:35:13;;;;;;;18.38;7.03;;;7.50;99.90;;;;;;5085537;28;20362;-48
2021/04/10 09:37:38;;;;;;;24.90;7.15;;;7.40;99.90;;;;;;5086628;28;20111;-50
2021/04/10 09:40:09;;;;;;;14.55;6.68;;;7.40;99.90;;;;;;5086267;28;20106;-47
2021/04/10 09:42:39;;;;;;;18.52;7.15;;;7.40;99.90;;;;;;5087238;28;20020;-47
2021/04/10 09:45:31;;;;;;;22.15;7.28;;;7.30;99.90;;;;;;5086888;28;20477;-48
2021/04/10 09:48:02;;;;;;;21.45;7.28;;;7.30;99.90;;;;;;5085542;28;20020;-48
2021/04/10 09:50:32;;;;;;;23.92;6.97;;;7.30;99.90;;;;;;5087053;28;20548;-48
2021/04/10 09:52:59;;;;;;;19.23;7.88;;;7.30;99.90;;;;;;5086467;28;20079;-47
2021/04/10 09:55:27;;;;;;;18.55;7.80;;;7.40;99.90;;;;;;5086591;28;20020;-49
2021/04/10 09:58:00;;;;;;;21.60;7.95;;;7.50;99.90;;;;;;5086338;28;20035;-48
2021/04/10 10:00:34;;;;;;;24.05;7.53;;;7.60;99.90;;;;;;5086740;28;20440;-48
2021/04/10 10:03:02;;;;;;;18.75;6.05;;;7.50;99.90;;;;;;5086535;28;20028;-48
2021/04/10 10:05:33;;;;;;;15.73;6.80;;;7.60;99.90;;;;;;5086857;28;20384;-49
2021/04/10 10:08:05;;;;;;;20.92;6.97;;;7.70;99.90;;;;;;5079413;28;20120;-48
2021/04/10 10:10:35;;;;;;;22.33;7.05;;;7.80;99.90;;;;;;5067413;28;20154;-48
2021/04/10 10:13:03;;;;;;;19.00;5.72;;;7.80;99.90;;;;;;5066065;28;20105;-49
2021/04/10 10:15:29;;;;;;;16.60;5.50;;;7.90;99.90;;;;;;5066035;28;20028;-49
2021/04/10 10:17:54;;;;;;;19.17;5.90;;;7.90;99.90;;;;;;5065756;28;20039;-50
2021/04/10 10:20:20;;;;;;;18.92;6.00;;;7.90;99.90;;;;;;5066477;28;20028;-47
2021/04/10 10:22:46;;;;;;;15.43;5.70;;;8.00;99.90;;;;;;5066012;28;20029;-48
2021/04/10 10:25:12;;;;;;;18.33;6.05;;;8.00;99.90;;;;;;5048573;28;20032;-47
2021/04/10 10:27:39;;;;;;;17.90;5.65;;;8.00;99.90;;;;;;5065819;28;20695;-48
2021/04/10 10:30:12;;;;;;;13.23;4.90;;;8.10;99.90;;;;;;5067311;28;20384;-48
2021/04/10 10:32:38;;;;;;;12.15;4.90;;;8.10;99.90;;;;;;5082903;28;20058;-48
2021/04/10 10:35:07;;;;;;;18.55;5.82;;;8.10;99.90;;;;;;5081537;28;20060;-47
2021/04/10 10:37:33;;;;;;;18.33;6.63;;;8.10;99.90;;;;;;5079803;28;20016;-47
2021/04/10 10:39:59;;;;;;;23.85;8.75;;;8.10;99.90;;;;;;5081802;28;20116;-48
2021/04/10 10:42:25;;;;;;;24.63;9.15;;;8.20;99.90;;;;;;5081873;28;20024;-47
2021/04/10 10:44:51;;;;;;;31.73;10.02;;;8.20;99.90;;;;;;5085162;28;20018;-47
2021/04/10 10:47:17;;;;;;;26.92;9.18;;;8.40;99.90;;;;;;5085449;28;20054;-48
2021/04/10 10:49:53;;;;;;;24.25;10.50;;;8.60;99.90;;;;;;5083671;28;20028;-50
2021/04/10 10:52:19;;;;;;;26.08;9.23;;;9.00;99.90;;;;;;5073700;28;20025;-50
2021/04/10 10:54:49;;;;;;;27.25;9.77;;;9.10;99.90;;;;;;5086433;28;20443;-49
2021/04/10 10:57:17;;;;;;;22.27;8.90;;;9.30;99.90;;;;;;5084043;28;20022;-47
2021/04/10 10:59:43;;;;;;;24.00;8.63;;;9.50;99.90;;;;;;5082983;28;20017;-51
2021/04/10 11:02:11;;;;;;;24.30;9.32;;;9.50;99.90;;;;;;5081973;28;20016;-48
2021/04/10 11:04:38;;;;;;;24.23;7.65;;;9.70;99.90;;;;;;5079648;28;20270;-50
2021/04/10 11:07:06;;;;;;;21.20;7.57;;;9.90;99.90;;;;;;5090124;28;20039;-51
2021/04/10 11:09:34;;;;;;;17.40;7.15;;;10.00;99.90;;;;;;5076477;28;21547;-48
2021/04/10 11:12:10;;;;;;;16.65;6.68;;;10.00;99.90;;;;;;5068764;28;20025;-50
2021/04/10 11:14:45;;;;;;;16.10;6.82;;;9.90;99.90;;;;;;5076446;28;20019;-48
2021/04/10 11:17:11;;;;;;;12.85;6.15;;;9.50;99.90;;;;;;5089703;28;20024;-50
2021/04/10 11:19:45;;;;;;;16.63;6.72;;;9.40;99.90;;;;;;5089792;28;20028;-50
2021/04/10 11:22:16;;;;;;;16.55;6.85;;;9.30;99.90;;;;;;5088680;28;20105;-49
2021/04/10 11:24:49;;;;;;;20.45;7.53;;;9.20;99.90;;;;;;5089551;28;20081;-47
2021/04/10 11:27:20;;;;;;;26.17;6.90;;;9.10;99.90;;;;;;5084889;28;20020;-47
2021/04/10 11:29:56;;;;;;;;;;;8.80;99.90;;;;;;5086042;28;20093;-48
2021/04/10 11:32:36;;;;;;;16.00;6.32;;;8.80;99.90;;;;;;5084398;28;20385;-49
2021/04/10 11:35:08;;;;;;;19.40;7.07;;;8.80;99.90;;;;;;5088050;28;20020;-47
2021/04/10 11:37:34;;;;;;;19.80;6.32;;;8.70;99.90;;;;;;5086890;28;20028;-51
2021/04/10 11:40:00;;;;;;;20.98;7.22;;;8.80;99.90;;;;;;5084269;28;20035;-48
2021/04/10 11:42:46;;;;;;;18.80;8.40;;;8.80;99.90;;;;;;5088683;28;20022;-48
2021/04/10 11:45:25;;;;;;;17.00;7.22;;;8.90;99.90;;;;;;5088800;28;20017;-49
2021/04/10 11:48:13;;;;;;;18.88;6.72;;;8.80;99.90;;;;;;5088097;28;20042;-48
2021/04/10 11:51:03;;;;;;;21.67;7.78;;;8.70;99.90;;;;;;5087765;28;20028;-48
2021/04/10 11:53:34;;;;;;;18.83;6.80;;;8.70;99.90;;;;;;5084644;28;20059;-50
2021/04/10 11:56:00;;;;;;;15.65;6.38;;;8.80;99.90;;;;;;5084459;28;20025;-47
2021/04/10 11:58:27;;;;;;;17.02;6.68;;;8.70;99.90;;;;;;5083947;28;20061;-47
2021/04/10 12:01:12;;;;;;;20.52;6.93;;;8.80;99.90;;;;;;5064759;28;20482;-50
2021/04/10 12:03:51;;;;;;;18.70;6.47;;;8.90;99.90;;;;;;5076923;28;20509;-50
2021/04/10 12:06:30;;;;;;;14.88;5.72;;;8.80;99.90;;;;;;5078515;28;20467;-48
2021/04/10 12:09:09;;;;;;;16.20;6.85;;;8.90;99.90;;;;;;5069225;28;20565;-48
2021/04/10 12:11:36;;;;;;;19.13;7.07;;;8.80;99.90;;;;;;5080810;28;20024;-47
2021/04/10 12:14:06;;;;;;;23.38;7.53;;;8.80;99.90;;;;;;5083330;28;20035;-47
2021/04/10 12:16:34;;;;;;;22.40;7.07;;;8.70;99.90;;;;;;5084335;28;20024;-49
2021/04/10 12:18:59;;;;;;;17.08;6.93;;;8.90;99.90;;;;;;5083499;28;21025;-48
2021/04/10 12:21:25;;;;;;;15.43;6.15;;;9.00;99.90;;;;;;5086504;28;20517;-48
2021/04/10 12:23:52;;;;;;;18.52;6.10;;;9.10;99.90;;;;;;5081026;28;20021;-47
2021/04/10 12:26:18;;;;;;;21.33;5.57;;;9.20;99.90;;;;;;5087188;28;20028;-47
2021/04/10 12:28:44;;;;;;;14.73;5.25;;;9.20;99.90;;;;;;5085993;28;20054;-49
2021/04/10 12:31:10;;;;;;;23.50;6.65;;;9.40;99.90;;;;;;5081250;28;20071;-49
2021/04/10 12:33:38;;;;;;;10.65;4.90;;;9.50;99.90;;;;;;5082414;28;20035;-47
2021/04/10 12:36:04;;;;;;;11.13;5.05;;;9.50;99.90;;;;;;5083664;28;20023;-50
2021/04/10 12:38:30;;;;;;;19.08;5.70;;;9.50;99.90;;;;;;5084144;28;20503;-47
2021/04/10 12:40:56;;;;;;;16.73;6.13;;;9.60;99.90;;;;;;5082542;28;20111;-47
2021/04/10 12:43:22;;;;;;;17.40;5.72;;;9.70;99.90;;;;;;5082724;28;20382;-51
2021/04/10 12:45:48;;;;;;;14.75;5.40;;;9.90;99.90;;;;;;5088610;28;20073;-48
2021/04/10 12:48:13;;;;;;;16.83;6.22;;;9.90;99.90;;;;;;5048001;28;20039;-50
2021/04/10 12:50:39;;;;;;;16.48;5.88;;;10.00;99.90;;;;;;5088638;28;20486;-47